Time;durP1;ratioP1;P1;durP2;ratioP2;P2;SDS_P1;SDS_P2;PMS_P1;PMS_P2;Temp;Humidity;BMP_temperature;BMP_pressure;BME280_temperature;BME280_humidity;BME280_pressure;Samples;Min_cycle;Max_cycle;Signal;HPM_P1;HPM_P2
2023/06/17 00:01:15;;;;;;;14.05;12.68;;;;;;;;;;4903160;29;20742;-84
2023/06/17 00:03:42;;;;;;;15.27;13.68;;;;;;;;;;4913315;29;20212;-83
2023/06/17 00:06:11;;;;;;;16.90;14.02;;;;;;;;;;4904515;29;20237;-83
2023/06/17 00:08:38;;;;;;;14.30;12.80;;;;;;;;;;4918323;29;20223;-84
2023/06/17 00:11:06;;;;;;;14.90;13.50;;;;;;;;;;4904162;29;20237;-80
2023/06/17 00:13:34;;;;;;;15.82;13.40;;;;;;;;;;4903355;29;20240;-81
2023/06/17 00:16:05;;;;;;;15.35;14.00;;;;;;;;;;4901967;29;20554;-84
2023/06/17 00:18:33;;;;;;;14.25;12.95;;;;;;;;;;4901471;29;20236;-81
2023/06/17 00:21:02;;;;;;;17.30;13.30;;;;;;;;;;4903474;29;20240;-82
2023/06/17 00:23:30;;;;;;;18.98;12.95;;;;;;;;;;4907971;29;20223;-85
2023/06/17 00:25:58;;;;;;;15.18;13.75;;;;;;;;;;4903266;29;20225;-82
2023/06/17 00:28:25;;;;;;;13.63;12.23;;;;;;;;;;4912402;29;20219;-82
2023/06/17 00:30:52;;;;;;;15.02;13.63;;;;;;;;;;4904886;29;20224;-81
2023/06/17 00:33:20;;;;;;;19.95;14.82;;;;;;;;;;4908058;29;20280;-82
2023/06/17 00:35:47;;;;;;;20.27;13.15;;;;;;;;;;4906697;29;20213;-82
2023/06/17 00:38:15;;;;;;;17.23;13.43;;;;;;;;;;4911664;29;20216;-82
2023/06/17 00:40:42;;;;;;;14.88;12.43;;;;;;;;;;4904476;29;20201;-81
2023/06/17 00:43:10;;;;;;;15.20;13.70;;;;;;;;;;4903533;29;20576;-81
2023/06/17 00:45:39;;;;;;;16.23;14.73;;;;;;;;;;4903672;29;20236;-82
2023/06/17 00:48:08;;;;;;;16.67;13.00;;;;;;;;;;4899199;29;20261;-80
2023/06/17 00:50:36;;;;;;;19.33;14.13;;;;;;;;;;4906094;29;20216;-83
2023/06/17 00:53:06;;;;;;;15.48;13.82;;;;;;;;;;4906214;29;20454;-83
2023/06/17 00:55:36;;;;;;;15.88;13.52;;;;;;;;;;4912538;29;20261;-83
2023/06/17 00:58:03;;;;;;;14.65;13.32;;;;;;;;;;4910197;29;20216;-83
2023/06/17 01:00:31;;;;;;;16.17;14.65;;;;;;;;;;4923165;29;20243;-80
2023/06/17 01:02:58;;;;;;;22.42;14.25;;;;;;;;;;4921868;29;20207;-84
2023/06/17 01:05:27;;;;;;;15.68;14.07;;;;;;;;;;4928223;29;20200;-82
2023/06/17 01:07:57;;;;;;;16.48;13.27;;;;;;;;;;4934261;29;20207;-79
2023/06/17 01:10:31;;;;;;;15.77;14.27;;;;;;;;;;4923402;29;20519;-80
2023/06/17 01:13:01;;;;;;;18.10;14.57;;;;;;;;;;4918821;29;20201;-81
2023/06/17 01:15:29;;;;;;;15.75;14.13;;;;;;;;;;4917609;29;20208;-83
2023/06/17 01:18:00;;;;;;;18.52;14.05;;;;;;;;;;4918516;29;20217;-82
2023/06/17 01:20:28;;;;;;;14.75;13.27;;;;;;;;;;4919628;29;20319;-83
2023/06/17 01:22:57;;;;;;;16.17;13.70;;;;;;;;;;4917097;29;20415;-81
2023/06/17 01:25:29;;;;;;;17.02;14.50;;;;;;;;;;4918917;29;20217;-82
2023/06/17 01:28:00;;;;;;;15.40;13.80;;;;;;;;;;4910520;29;20217;-81
2023/06/17 01:30:28;;;;;;;18.77;13.57;;;;;;;;;;4912311;29;20247;-83
2023/06/17 01:33:00;;;;;;;19.20;14.82;;;;;;;;;;4912062;29;20205;-81
2023/06/17 01:35:31;;;;;;;15.80;13.77;;;;;;;;;;4911030;29;20274;-81
2023/06/17 01:38:06;;;;;;;17.73;14.73;;;;;;;;;;4907406;29;20226;-81
2023/06/17 01:40:36;;;;;;;15.70;14.30;;;;;;;;;;4918314;29;20228;-83
2023/06/17 01:43:06;;;;;;;21.13;15.27;;;;;;;;;;4907722;29;20249;-82
2023/06/17 01:45:33;;;;;;;17.10;15.35;;;;;;;;;;4898265;29;20213;-82
2023/06/17 01:48:01;;;;;;;16.42;14.70;;;;;;;;;;4908717;29;20229;-82
2023/06/17 01:50:29;;;;;;;16.90;14.73;;;;;;;;;;4914905;29;20430;-83
2023/06/17 01:52:56;;;;;;;15.23;13.85;;;;;;;;;;4906930;29;20205;-83
2023/06/17 01:55:24;;;;;;;15.70;14.10;;;;;;;;;;4919635;29;20223;-82
2023/06/17 01:57:52;;;;;;;18.55;14.35;;;;;;;;;;4905241;29;20412;-83
2023/06/17 02:00:19;;;;;;;22.85;15.10;;;;;;;;;;4910238;29;20612;-82
2023/06/17 02:02:47;;;;;;;16.75;15.05;;;;;;;;;;4906138;29;20217;-81
2023/06/17 02:05:15;;;;;;;16.55;13.65;;;;;;;;;;4905754;29;20213;-81
2023/06/17 02:07:43;;;;;;;16.98;13.73;;;;;;;;;;4914884;29;20208;-82
2023/06/17 02:10:10;;;;;;;22.70;14.18;;;;;;;;;;4913871;29;20558;-82
2023/06/17 02:12:38;;;;;;;17.52;12.95;;;;;;;;;;4908735;29;20221;-81
2023/06/17 02:15:06;;;;;;;14.25;12.63;;;;;;;;;;4898068;29;20201;-81
2023/06/17 02:17:35;;;;;;;16.05;14.05;;;;;;;;;;4905303;29;20218;-81
2023/06/17 02:20:06;;;;;;;14.20;12.80;;;;;;;;;;4904555;29;20296;-82
2023/06/17 02:22:33;;;;;;;15.93;14.40;;;;;;;;;;4905574;29;20219;-82
2023/06/17 02:25:02;;;;;;;14.45;12.82;;;;;;;;;;4905845;29;20205;-81
2023/06/17 02:27:29;;;;;;;13.73;12.43;;;;;;;;;;4908031;29;20281;-82
2023/06/17 02:29:57;;;;;;;15.43;13.85;;;;;;;;;;4910115;29;20220;-81
2023/06/17 02:32:24;;;;;;;15.70;14.20;;;;;;;;;;4904741;29;20243;-81
2023/06/17 02:34:54;;;;;;;15.37;13.93;;;;;;;;;;4911600;29;20273;-82
2023/06/17 02:37:21;;;;;;;18.37;15.03;;;;;;;;;;4905251;29;20469;-81
2023/06/17 02:39:49;;;;;;;15.55;14.05;;;;;;;;;;4905096;29;20507;-82
2023/06/17 02:42:16;;;;;;;15.48;13.98;;;;;;;;;;4906189;29;20235;-80
2023/06/17 02:44:44;;;;;;;15.93;14.23;;;;;;;;;;4908605;29;20220;-80
2023/06/17 02:47:11;;;;;;;14.65;13.23;;;;;;;;;;4910311;29;20515;-82
2023/06/17 02:49:40;;;;;;;16.25;13.82;;;;;;;;;;4915004;29;20216;-80
2023/06/17 02:52:07;;;;;;;19.83;13.75;;;;;;;;;;4914175;29;20219;-82
2023/06/17 02:54:35;;;;;;;16.60;14.80;;;;;;;;;;4918427;29;20228;-81
2023/06/17 02:57:03;;;;;;;15.23;12.50;;;;;;;;;;4901259;29;20219;-82
2023/06/17 02:59:33;;;;;;;13.02;11.80;;;;;;;;;;4898522;29;20492;-81
2023/06/17 03:02:00;;;;;;;13.23;11.83;;;;;;;;;;4905572;29;20256;-83
2023/06/17 03:04:34;;;;;;;11.70;10.50;;;;;;;;;;4914378;29;20449;-82
2023/06/17 03:07:03;;;;;;;19.53;12.00;;;;;;;;;;4906178;29;20445;-83
2023/06/17 03:09:30;;;;;;;13.57;11.65;;;;;;;;;;4908268;29;20441;-83
2023/06/17 03:12:02;;;;;;;16.43;10.47;;;;;;;;;;4910212;29;20232;-83
2023/06/17 03:14:30;;;;;;;15.63;10.70;;;;;;;;;;4917867;29;20448;-84
2023/06/17 03:16:58;;;;;;;12.17;10.97;;;;;;;;;;4910570;29;20657;-82
2023/06/17 03:19:27;;;;;;;11.27;9.27;;;;;;;;;;4910274;29;20490;-83
2023/06/17 03:21:54;;;;;;;12.90;11.27;;;;;;;;;;4906827;29;20448;-81
2023/06/17 03:27:11;;;;;;;11.33;9.90;;;;;;;;;;4984048;23;20575;-84
2023/06/17 03:29:38;;;;;;;12.73;10.50;;;;;;;;;;4926102;29;20460;-84
2023/06/17 03:32:06;;;;;;;10.60;9.60;;;;;;;;;;4916419;29;20776;-83
2023/06/17 03:34:33;;;;;;;16.47;10.10;;;;;;;;;;4923885;29;20455;-83
2023/06/17 03:37:01;;;;;;;15.40;10.27;;;;;;;;;;4923898;29;20450;-83
2023/06/17 03:39:28;;;;;;;13.70;10.30;;;;;;;;;;4923475;29;20518;-84
2023/06/17 03:41:55;;;;;;;13.50;8.50;;;;;;;;;;4931070;29;20450;-85
2023/06/17 03:44:25;;;;;;;11.33;9.47;;;;;;;;;;4938098;29;20459;-84
2023/06/17 03:46:53;;;;;;;10.33;9.07;;;;;;;;;;4934877;29;20458;-84
2023/06/17 03:49:20;;;;;;;10.50;9.00;;;;;;;;;;4928454;29;20457;-83
2023/06/17 03:51:52;;;;;;;16.20;9.80;;;;;;;;;;4940439;29;20509;-84
2023/06/17 03:54:20;;;;;;;10.43;8.47;;;;;;;;;;4929839;29;20955;-83
2023/06/17 03:56:48;;;;;;;9.40;7.70;;;;;;;;;;4925399;29;20524;-84
2023/06/17 03:59:16;;;;;;;9.97;9.10;;;;;;;;;;4928566;29;20877;-83
2023/06/17 04:01:44;;;;;;;10.63;8.33;;;;;;;;;;4930474;29;20449;-84
2023/06/17 04:04:11;;;;;;;12.30;9.10;;;;;;;;;;4925267;29;20454;-83
2023/06/17 04:06:41;;;;;;;10.13;9.13;;;;;;;;;;4921186;29;20502;-84
2023/06/17 04:09:08;;;;;;;8.23;7.53;;;;;;;;;;4931073;29;20441;-85
2023/06/17 04:11:36;;;;;;;9.80;8.83;;;;;;;;;;4919839;29;20450;-84
2023/06/17 04:14:05;;;;;;;9.17;8.47;;;;;;;;;;4923192;29;20462;-83
2023/06/17 04:16:35;;;;;;;13.00;9.37;;;;;;;;;;4920726;29;20452;-84
2023/06/17 04:19:02;;;;;;;12.03;7.30;;;;;;;;;;4919612;29;20446;-83
2023/06/17 04:21:31;;;;;;;9.97;8.00;;;;;;;;;;4918842;29;20856;-84
2023/06/17 04:23:59;;;;;;;11.57;8.40;;;;;;;;;;4926802;29;20509;-84
2023/06/17 04:26:28;;;;;;;8.47;7.67;;;;;;;;;;4932261;29;20549;-84
2023/06/17 04:28:56;;;;;;;8.57;7.17;;;;;;;;;;4926960;29;20773;-85
2023/06/17 04:31:25;;;;;;;9.93;8.27;;;;;;;;;;4930584;29;20469;-84
2023/06/17 04:33:52;;;;;;;10.00;8.40;;;;;;;;;;4929355;29;20455;-83
2023/06/17 04:36:21;;;;;;;9.73;7.80;;;;;;;;;;4934102;29;20461;-84
2023/06/17 04:38:49;;;;;;;15.37;7.80;;;;;;;;;;4944220;29;20453;-84
2023/06/17 04:41:17;;;;;;;9.57;8.57;;;;;;;;;;4941795;29;20494;-85
2023/06/17 04:43:48;;;;;;;8.63;7.83;;;;;;;;;;4947883;29;20433;-83
2023/06/17 04:46:20;;;;;;;8.20;7.40;;;;;;;;;;4938881;29;20439;-83
2023/06/17 04:48:48;;;;;;;10.50;7.90;;;;;;;;;;4925633;29;20502;-83
2023/06/17 04:51:17;;;;;;;7.53;6.93;;;;;;;;;;4925595;29;20447;-84
2023/06/17 04:53:45;;;;;;;7.80;7.10;;;;;;;;;;4933532;29;20972;-83
2023/06/17 04:56:14;;;;;;;15.63;7.83;;;;;;;;;;4932041;29;20447;-84
2023/06/17 04:58:43;;;;;;;9.90;8.30;;;;;;;;;;4925058;29;20469;-83
2023/06/17 05:01:13;;;;;;;9.60;7.57;;;;;;;;;;4930597;29;20493;-83
2023/06/17 05:03:40;;;;;;;9.50;7.70;;;;;;;;;;4931134;29;20518;-83
2023/06/17 05:06:10;;;;;;;12.13;7.70;;;;;;;;;;4924904;29;20558;-82
2023/06/17 05:08:38;;;;;;;11.53;6.73;;;;;;;;;;4928775;29;20457;-82
2023/06/17 05:11:05;;;;;;;7.80;7.07;;;;;;;;;;4924547;29;20430;-83
2023/06/17 05:13:33;;;;;;;9.03;7.47;;;;;;;;;;4919987;29;20749;-83
2023/06/17 05:16:01;;;;;;;9.50;6.97;;;;;;;;;;4928051;29;20426;-84
2023/06/17 05:18:29;;;;;;;13.47;9.40;;;;;;;;;;4932938;29;20584;-85
2023/06/17 05:20:57;;;;;;;8.63;6.63;;;;;;;;;;4929442;29;20486;-84
2023/06/17 05:23:24;;;;;;;8.87;7.30;;;;;;;;;;4929571;29;20575;-80
2023/06/17 05:25:52;;;;;;;7.53;6.83;;;;;;;;;;4928125;29;20439;-79
2023/06/17 05:28:20;;;;;;;8.73;6.83;;;;;;;;;;4930921;29;20505;-80
2023/06/17 05:30:48;;;;;;;7.60;6.63;;;;;;;;;;4925068;29;20421;-78
2023/06/17 05:33:16;;;;;;;7.67;6.97;;;;;;;;;;4929542;29;20950;-81
2023/06/17 05:35:44;;;;;;;7.90;6.67;;;;;;;;;;4934519;29;20480;-82
2023/06/17 05:38:11;;;;;;;7.93;7.33;;;;;;;;;;4933025;29;20514;-85
2023/06/17 05:40:39;;;;;;;7.70;7.00;;;;;;;;;;4925614;29;20526;-81
2023/06/17 05:43:06;;;;;;;9.67;7.70;;;;;;;;;;4924562;29;20466;-80
2023/06/17 05:45:34;;;;;;;8.07;7.17;;;;;;;;;;4915095;29;20430;-81
2023/06/17 05:48:02;;;;;;;9.83;7.77;;;;;;;;;;4924524;29;20425;-80
2023/06/17 05:50:29;;;;;;;7.40;6.77;;;;;;;;;;4930019;29;20450;-81
2023/06/17 05:52:56;;;;;;;15.73;7.03;;;;;;;;;;4923871;29;20421;-80
2023/06/17 05:55:40;;;;;;;8.23;6.63;;;;;;;;;;4920484;29;20430;-83
2023/06/17 05:58:08;;;;;;;8.43;7.27;;;;;;;;;;4919187;29;20600;-82
2023/06/17 06:00:39;;;;;;;8.27;7.37;;;;;;;;;;4925599;29;21151;-83
2023/06/17 06:03:07;;;;;;;10.90;7.43;;;;;;;;;;4918370;29;20454;-79
2023/06/17 06:05:35;;;;;;;7.87;7.07;;;;;;;;;;4918278;29;20433;-81
2023/06/17 06:08:02;;;;;;;7.90;7.10;;;;;;;;;;4924566;29;20453;-82
2023/06/17 06:10:30;;;;;;;8.00;7.20;;;;;;;;;;4923986;29;20452;-85
2023/06/17 06:13:01;;;;;;;7.03;6.33;;;;;;;;;;4931639;29;20479;-82
2023/06/17 06:15:32;;;;;;;9.13;6.70;;;;;;;;;;4920450;29;20428;-86
2023/06/17 06:18:01;;;;;;;7.23;6.53;;;;;;;;;;4926905;29;20754;-84
2023/06/17 06:20:32;;;;;;;8.80;7.20;;;;;;;;;;4924418;29;20471;-82
2023/06/17 06:23:00;;;;;;;7.40;6.70;;;;;;;;;;4922485;29;20420;-86
2023/06/17 06:25:30;;;;;;;6.80;6.20;;;;;;;;;;4919288;29;20417;-87
2023/06/17 06:27:58;;;;;;;12.90;7.67;;;;;;;;;;4920966;29;20422;-83
2023/06/17 06:30:28;;;;;;;8.07;7.00;;;;;;;;;;4926377;29;20628;-87
2023/06/17 06:32:56;;;;;;;10.50;7.17;;;;;;;;;;4918202;29;20488;-81
2023/06/17 06:35:25;;;;;;;7.80;7.10;;;;;;;;;;4924472;29;20422;-85
2023/06/17 06:37:55;;;;;;;8.50;7.37;;;;;;;;;;4923413;29;20447;-86
2023/06/17 06:40:26;;;;;;;7.40;6.70;;;;;;;;;;4922856;29;20497;-85
2023/06/17 06:42:56;;;;;;;7.90;7.10;;;;;;;;;;4920283;29;20742;-86
2023/06/17 06:45:24;;;;;;;10.00;6.93;;;;;;;;;;4923512;29;20497;-82
2023/06/17 06:47:58;;;;;;;8.37;7.67;;;;;;;;;;4923857;29;20450;-83
2023/06/17 06:50:27;;;;;;;9.30;8.30;;;;;;;;;;4916990;29;20521;-82
2023/06/17 06:52:56;;;;;;;7.53;6.93;;;;;;;;;;4920352;29;20456;-82
2023/06/17 06:55:24;;;;;;;8.20;7.40;;;;;;;;;;4922957;29;20439;-80
2023/06/17 06:57:51;;;;;;;7.97;7.17;;;;;;;;;;4921645;29;20529;-82
2023/06/17 07:00:18;;;;;;;8.57;7.80;;;;;;;;;;4920113;29;20515;-83
2023/06/17 07:02:51;;;;;;;9.63;7.37;;;;;;;;;;4920614;29;20421;-79
2023/06/17 07:05:21;;;;;;;8.30;7.33;;;;;;;;;;4918806;29;20444;-84
2023/06/17 07:07:49;;;;;;;7.40;6.50;;;;;;;;;;4925123;29;20414;-87
2023/06/17 07:10:17;;;;;;;6.10;5.60;;;;;;;;;;4925876;29;20455;-80
2023/06/17 07:12:48;;;;;;;10.13;6.67;;;;;;;;;;4921592;29;20788;-84
2023/06/17 07:15:16;;;;;;;7.73;7.03;;;;;;;;;;4923436;29;20451;-80
2023/06/17 07:17:43;;;;;;;5.80;5.30;;;;;;;;;;4919321;29;20447;-84
2023/06/17 07:20:11;;;;;;;7.33;6.63;;;;;;;;;;4923843;29;20461;-85
2023/06/17 07:22:38;;;;;;;7.03;6.40;;;;;;;;;;4921724;29;20439;-81
2023/06/17 07:25:07;;;;;;;7.37;6.77;;;;;;;;;;4925980;29;20445;-81
2023/06/17 07:27:35;;;;;;;8.23;7.47;;;;;;;;;;4925566;29;20501;-86
2023/06/17 07:30:04;;;;;;;7.90;7.10;;;;;;;;;;4924379;29;20429;-81
2023/06/17 07:32:32;;;;;;;9.50;6.70;;;;;;;;;;4920010;29;20486;-81
2023/06/17 07:35:00;;;;;;;7.60;7.00;;;;;;;;;;4923078;29;20421;-83
2023/06/17 07:37:27;;;;;;;6.57;5.97;;;;;;;;;;4921391;29;20495;-85
2023/06/17 07:39:56;;;;;;;6.90;6.23;;;;;;;;;;4915640;29;20725;-81
2023/06/17 07:42:25;;;;;;;7.03;6.23;;;;;;;;;;4917502;29;20458;-83
2023/06/17 07:44:53;;;;;;;7.47;6.87;;;;;;;;;;4911898;29;20538;-83
2023/06/17 07:47:23;;;;;;;7.30;6.70;;;;;;;;;;4921191;29;20425;-84
2023/06/17 07:49:50;;;;;;;7.73;6.93;;;;;;;;;;4919360;29;20438;-79
2023/06/17 07:52:18;;;;;;;8.00;7.20;;;;;;;;;;4914688;29;20426;-84
2023/06/17 07:54:45;;;;;;;9.60;8.70;;;;;;;;;;4918635;29;20806;-81
2023/06/17 07:57:13;;;;;;;7.67;7.07;;;;;;;;;;4911950;29;20429;-82
2023/06/17 07:59:41;;;;;;;9.20;8.30;;;;;;;;;;4922537;29;21056;-84
2023/06/17 08:02:10;;;;;;;10.30;8.57;;;;;;;;;;4913155;29;20469;-81
2023/06/17 08:04:38;;;;;;;8.23;7.47;;;;;;;;;;4913537;29;20535;-82
2023/06/17 08:07:06;;;;;;;8.93;7.47;;;;;;;;;;4915046;29;20956;-82
2023/06/17 08:09:33;;;;;;;8.13;7.43;;;;;;;;;;4926411;29;20459;-84
2023/06/17 08:12:00;;;;;;;10.70;7.87;;;;;;;;;;4926312;29;20449;-82
2023/06/17 08:14:30;;;;;;;8.30;7.50;;;;;;;;;;4927797;29;20447;-86
2023/06/17 08:16:58;;;;;;;7.77;7.17;;;;;;;;;;4939297;29;20444;-80
2023/06/17 08:19:25;;;;;;;7.30;6.70;;;;;;;;;;4934216;29;20524;-83
2023/06/17 08:21:53;;;;;;;6.60;6.10;;;;;;;;;;4939481;29;20487;-80
2023/06/17 08:24:25;;;;;;;7.97;7.37;;;;;;;;;;4934681;29;20514;-84
2023/06/17 08:26:53;;;;;;;6.77;6.27;;;;;;;;;;4929766;29;20447;-83
2023/06/17 08:29:20;;;;;;;9.03;6.83;;;;;;;;;;4930057;29;20457;-83
2023/06/17 08:31:49;;;;;;;7.20;6.70;;;;;;;;;;4924959;29;20462;-82
2023/06/17 08:34:16;;;;;;;7.40;6.80;;;;;;;;;;4926675;29;20501;-81
2023/06/17 08:36:45;;;;;;;7.20;6.60;;;;;;;;;;4928381;29;20533;-82
2023/06/17 08:39:13;;;;;;;7.07;6.47;;;;;;;;;;4925718;29;20517;-81
2023/06/17 08:41:41;;;;;;;7.33;6.70;;;;;;;;;;4919717;29;20483;-82
2023/06/17 08:44:10;;;;;;;8.33;7.57;;;;;;;;;;4917710;29;20801;-80
2023/06/17 08:46:37;;;;;;;7.47;6.93;;;;;;;;;;4920762;29;20455;-84
2023/06/17 08:49:07;;;;;;;7.80;7.10;;;;;;;;;;4923052;29;20433;-81
2023/06/17 08:51:35;;;;;;;7.37;6.53;;;;;;;;;;4925186;29;20472;-80
2023/06/17 08:54:03;;;;;;;7.83;7.23;;;;;;;;;;4928929;29;20537;-84
2023/06/17 08:56:30;;;;;;;6.13;5.60;;;;;;;;;;4920602;29;20519;-82
2023/06/17 08:58:58;;;;;;;6.00;5.50;;;;;;;;;;4918102;29;20546;-86
2023/06/17 09:01:27;;;;;;;6.17;5.53;;;;;;;;;;4921534;29;20504;-85
2023/06/17 09:03:54;;;;;;;8.97;8.10;;;;;;;;;;4924144;29;20470;-84
2023/06/17 09:06:27;;;;;;;8.70;6.17;;;;;;;;;;4919871;29;20445;-86
2023/06/17 09:08:55;;;;;;;5.80;5.40;;;;;;;;;;4912052;29;20451;-86
2023/06/17 09:11:23;;;;;;;6.43;6.00;;;;;;;;;;4923197;29;20454;-85
2023/06/17 09:13:54;;;;;;;6.00;5.43;;;;;;;;;;4919563;29;21705;-82
2023/06/17 09:16:25;;;;;;;6.47;5.87;;;;;;;;;;4914687;29;20459;-82
2023/06/17 09:18:58;;;;;;;8.40;6.20;;;;;;;;;;4924283;29;20444;-83
2023/06/17 09:21:26;;;;;;;6.63;6.00;;;;;;;;;;4922396;29;20513;-85
2023/06/17 09:23:55;;;;;;;7.47;6.87;;;;;;;;;;4922722;29;20647;-85
2023/06/17 09:26:24;;;;;;;7.07;6.37;;;;;;;;;;4926995;29;20509;-84
2023/06/17 09:28:52;;;;;;;7.97;7.17;;;;;;;;;;4921438;29;20431;-85
2023/06/17 09:31:19;;;;;;;7.10;6.43;;;;;;;;;;4921724;29;20447;-82
2023/06/17 09:33:47;;;;;;;43.73;8.10;;;;;;;;;;4928647;29;20497;-84
2023/06/17 09:36:14;;;;;;;7.30;6.60;;;;;;;;;;4927821;29;20557;-84
2023/06/17 09:38:42;;;;;;;8.67;6.57;;;;;;;;;;4919859;29;20478;-86
2023/06/17 09:41:14;;;;;;;7.10;6.50;;;;;;;;;;4917035;29;20486;-86
2023/06/17 09:43:41;;;;;;;7.10;6.37;;;;;;;;;;4923391;29;20454;-84
2023/06/17 09:46:11;;;;;;;6.77;6.27;;;;;;;;;;4925898;29;20450;-85
2023/06/17 09:48:38;;;;;;;7.90;7.10;;;;;;;;;;4912173;29;20535;-84
2023/06/17 09:51:12;;;;;;;6.77;6.17;;;;;;;;;;4924650;29;20678;-83
2023/06/17 09:53:41;;;;;;;6.73;6.10;;;;;;;;;;4915803;29;20402;-83
2023/06/17 09:56:10;;;;;;;6.93;6.43;;;;;;;;;;4923494;29;20430;-83
2023/06/17 09:58:38;;;;;;;7.07;6.37;;;;;;;;;;4920594;29;21052;-85
2023/06/17 10:01:11;;;;;;;13.37;8.50;;;;;;;;;;4917740;29;20481;-81
2023/06/17 10:03:42;;;;;;;6.80;6.30;;;;;;;;;;4925945;29;20465;-85
2023/06/17 10:06:10;;;;;;;7.97;7.30;;;;;;;;;;4920705;29;20446;-86
2023/06/17 10:08:40;;;;;;;6.77;6.37;;;;;;;;;;4930506;29;20458;-81
2023/06/17 10:11:10;;;;;;;8.47;7.77;;;;;;;;;;4929459;29;20456;-83
2023/06/17 10:13:39;;;;;;;8.53;7.33;;;;;;;;;;4919006;29;20454;-84
2023/06/17 10:16:11;;;;;;;6.57;6.17;;;;;;;;;;4920044;29;20489;-83
2023/06/17 10:18:39;;;;;;;7.03;6.43;;;;;;;;;;4916425;29;20435;-85
2023/06/17 10:21:09;;;;;;;7.93;5.87;;;;;;;;;;4934958;29;20552;-83
2023/06/17 10:23:38;;;;;;;7.47;6.87;;;;;;;;;;4919963;29;20505;-84
2023/06/17 10:26:06;;;;;;;7.70;7.00;;;;;;;;;;4921834;29;20471;-84
2023/06/17 10:28:53;;;;;;;7.70;7.00;;;;;;;;;;4917493;29;20422;-82
2023/06/17 10:31:23;;;;;;;7.27;6.77;;;;;;;;;;4919974;29;20447;-83
2023/06/17 10:33:54;;;;;;;6.57;5.97;;;;;;;;;;4920323;29;20466;-82
2023/06/17 10:36:21;;;;;;;6.40;6.00;;;;;;;;;;4917647;29;20426;-82
2023/06/17 10:38:56;;;;;;;6.67;6.07;;;;;;;;;;4918017;29;20506;-82
2023/06/17 10:41:44;;;;;;;7.50;6.90;;;;;;;;;;4916159;29;20541;-82
2023/06/17 10:44:26;;;;;;;7.60;7.03;;;;;;;;;;4923537;29;20444;-85
2023/06/17 10:46:55;;;;;;;7.07;6.57;;;;;;;;;;4922027;29;21227;-82
2023/06/17 10:49:23;;;;;;;7.23;6.63;;;;;;;;;;4922096;29;20753;-86
2023/06/17 10:51:51;;;;;;;7.63;7.03;;;;;;;;;;4919974;29;20533;-82
2023/06/17 10:54:28;;;;;;;7.03;6.13;;;;;;;;;;4919557;29;20452;-81
2023/06/17 10:56:56;;;;;;;7.00;6.40;;;;;;;;;;4922492;29;20435;-81
2023/06/17 10:59:25;;;;;;;6.83;6.30;;;;;;;;;;4913360;29;20455;-80
2023/06/17 11:02:06;;;;;;;7.53;6.83;;;;;;;;;;4918590;29;20490;-84
2023/06/17 11:04:42;;;;;;;7.97;7.27;;;;;;;;;;4914809;29;20743;-84
2023/06/17 11:07:09;;;;;;;7.13;6.53;;;;;;;;;;4936356;29;21093;-83
2023/06/17 11:09:37;;;;;;;7.10;6.57;;;;;;;;;;4922491;29;20789;-82
2023/06/17 11:12:06;;;;;;;7.27;6.60;;;;;;;;;;4916714;29;20429;-82
2023/06/17 11:14:34;;;;;;;6.03;5.53;;;;;;;;;;4912930;29;20732;-85
2023/06/17 11:17:02;;;;;;;7.30;6.70;;;;;;;;;;4920324;29;20417;-83
2023/06/17 11:19:30;;;;;;;6.47;5.97;;;;;;;;;;4922801;29;20455;-83
2023/06/17 11:22:03;;;;;;;6.30;5.80;;;;;;;;;;4914391;29;20526;-85
2023/06/17 11:24:31;;;;;;;6.50;6.00;;;;;;;;;;4920704;29;20440;-83
2023/06/17 11:26:59;;;;;;;6.30;5.70;;;;;;;;;;4920257;29;20895;-84
2023/06/17 11:29:27;;;;;;;6.37;5.87;;;;;;;;;;4921643;29;20477;-78
2023/06/17 11:31:55;;;;;;;8.27;4.40;;;;;;;;;;4927691;29;20449;-83
2023/06/17 11:34:23;;;;;;;8.70;5.20;;;;;;;;;;4924553;29;20420;-83
2023/06/17 11:36:54;;;;;;;12.67;5.10;;;;;;;;;;4921425;29;20622;-81
2023/06/17 11:39:23;;;;;;;5.73;5.23;;;;;;;;;;4915540;29;20466;-84
2023/06/17 11:42:00;;;;;;;5.70;5.30;;;;;;;;;;4915408;29;20505;-81
2023/06/17 11:44:28;;;;;;;5.13;4.73;;;;;;;;;;4914690;29;20529;-85
2023/06/17 11:46:58;;;;;;;5.10;4.70;;;;;;;;;;4920062;29;20462;-83
2023/06/17 11:49:29;;;;;;;5.33;4.93;;;;;;;;;;4931255;29;20518;-79
2023/06/17 11:52:09;;;;;;;5.33;4.83;;;;;;;;;;4935695;29;20465;-83
2023/06/17 11:54:49;;;;;;;5.33;4.27;;;;;;;;;;4927819;29;20451;-84
2023/06/17 11:57:18;;;;;;;5.70;4.93;;;;;;;;;;4919666;29;20461;-86
2023/06/17 11:59:45;;;;;;;5.47;5.07;;;;;;;;;;4919276;29;20466;-83
2023/06/17 12:02:16;;;;;;;5.37;4.83;;;;;;;;;;4919326;29;20497;-80
2023/06/17 12:04:44;;;;;;;7.90;5.17;;;;;;;;;;4913715;29;20431;-85
2023/06/17 12:07:11;;;;;;;6.40;5.90;;;;;;;;;;4915793;29;20444;-85
2023/06/17 12:09:50;;;;;;;7.20;6.60;;;;;;;;;;4921311;29;20479;-85
2023/06/17 12:12:26;;;;;;;6.90;6.20;;;;;;;;;;4922000;29;20479;-85
2023/06/17 12:15:06;;;;;;;5.80;5.30;;;;;;;;;;4924821;29;20436;-88
2023/06/17 12:17:42;;;;;;;6.30;5.80;;;;;;;;;;4912261;29;20447;-84
2023/06/17 12:20:14;;;;;;;6.63;6.13;;;;;;;;;;4922364;29;20458;-85
2023/06/17 12:22:43;;;;;;;5.70;5.30;;;;;;;;;;4919164;29;20446;-83
2023/06/17 12:25:11;;;;;;;6.77;6.10;;;;;;;;;;4920033;29;20467;-84
2023/06/17 12:27:38;;;;;;;5.40;5.00;;;;;;;;;;4922476;29;20485;-85
2023/06/17 12:30:06;;;;;;;5.23;4.83;;;;;;;;;;4920356;29;20453;-83
2023/06/17 12:32:34;;;;;;;8.27;6.77;;;;;;;;;;4918499;29;20630;-83
2023/06/17 12:35:02;;;;;;;6.77;6.17;;;;;;;;;;4912460;29;20434;-85
2023/06/17 12:37:35;;;;;;;6.60;6.10;;;;;;;;;;4916915;29;20452;-81
2023/06/17 12:40:03;;;;;;;8.47;5.73;;;;;;;;;;4920592;29;20668;-81
2023/06/17 12:42:30;;;;;;;6.47;5.97;;;;;;;;;;4911575;29;20471;-82
2023/06/17 12:44:58;;;;;;;7.10;6.50;;;;;;;;;;4915969;29;20573;-84
2023/06/17 12:47:26;;;;;;;5.70;5.27;;;;;;;;;;4927717;29;20454;-82
2023/06/17 12:49:53;;;;;;;5.90;5.40;;;;;;;;;;4923367;29;20482;-89
2023/06/17 12:52:21;;;;;;;5.70;5.30;;;;;;;;;;4919010;29;20447;-85
2023/06/17 12:54:57;;;;;;;6.27;5.67;;;;;;;;;;4918331;29;21022;-84
2023/06/17 12:57:25;;;;;;;6.97;6.40;;;;;;;;;;4923185;29;20443;-85
2023/06/17 12:59:52;;;;;;;5.53;5.10;;;;;;;;;;4926348;29;20447;-82
2023/06/17 13:02:20;;;;;;;5.63;5.13;;;;;;;;;;4923397;29;20838;-81
2023/06/17 13:04:47;;;;;;;6.30;5.53;;;;;;;;;;4925776;29;20484;-87
2023/06/17 13:07:16;;;;;;;5.80;5.30;;;;;;;;;;4928490;29;20450;-89
2023/06/17 13:09:43;;;;;;;6.10;5.50;;;;;;;;;;4919923;29;20437;-84
2023/06/17 13:12:11;;;;;;;6.40;5.80;;;;;;;;;;4923255;29;20455;-85
2023/06/17 13:14:39;;;;;;;5.50;5.10;;;;;;;;;;4920507;29;20455;-82
2023/06/17 13:17:07;;;;;;;5.33;5.00;;;;;;;;;;4928858;29;20509;-86
2023/06/17 13:19:34;;;;;;;7.40;4.90;;;;;;;;;;4927153;29;20447;-85
2023/06/17 13:22:03;;;;;;;4.43;3.97;;;;;;;;;;4922241;29;20814;-85
2023/06/17 13:24:31;;;;;;;4.80;4.30;;;;;;;;;;4930673;29;20445;-79
2023/06/17 13:26:58;;;;;;;5.03;4.73;;;;;;;;;;4935321;29;20477;-82
2023/06/17 13:29:25;;;;;;;5.40;4.90;;;;;;;;;;4935931;29;20442;-81
2023/06/17 13:31:55;;;;;;;5.47;5.07;;;;;;;;;;4937143;29;20474;-82
2023/06/17 13:34:22;;;;;;;5.63;4.33;;;;;;;;;;4926256;29;20462;-88
2023/06/17 13:36:49;;;;;;;6.73;4.77;;;;;;;;;;4926276;29;20459;-81
2023/06/17 13:39:17;;;;;;;5.03;4.63;;;;;;;;;;5159951;23;20531;-84
2023/06/17 13:41:44;;;;;;;5.10;4.73;;;;;;;;;;4903671;29;20444;-86
2023/06/17 13:44:13;;;;;;;4.60;4.30;;;;;;;;;;4907977;29;20598;-87
2023/06/17 13:46:41;;;;;;;4.73;4.33;;;;;;;;;;4904526;29;20787;-84
2023/06/17 13:49:08;;;;;;;5.00;4.60;;;;;;;;;;4905065;29;20516;-83
2023/06/17 13:51:37;;;;;;;5.30;4.90;;;;;;;;;;4897953;29;20452;-84
2023/06/17 13:54:06;;;;;;;6.03;4.80;;;;;;;;;;4899332;29;20455;-81
2023/06/17 13:56:33;;;;;;;5.40;4.80;;;;;;;;;;4897614;29;20721;-84
2023/06/17 13:59:00;;;;;;;4.87;4.53;;;;;;;;;;4903553;29;21018;-84
2023/06/17 14:01:28;;;;;;;4.40;4.10;;;;;;;;;;4898387;29;20454;-86
2023/06/17 14:03:56;;;;;;;4.80;4.43;;;;;;;;;;4899021;29;20483;-86
2023/06/17 14:06:25;;;;;;;5.27;4.87;;;;;;;;;;4904512;29;20426;-83
2023/06/17 14:08:52;;;;;;;5.00;4.60;;;;;;;;;;4905076;29;20444;-85
2023/06/17 14:11:22;;;;;;;10.03;4.10;;;;;;;;;;4902811;29;20442;-81
2023/06/17 14:13:49;;;;;;;5.23;4.83;;;;;;;;;;4901569;29;20467;-87
2023/06/17 14:16:17;;;;;;;5.17;4.77;;;;;;;;;;4909101;29;20654;-84
2023/06/17 14:18:45;;;;;;;5.03;4.73;;;;;;;;;;4912207;29;20430;-82
2023/06/17 14:21:23;;;;;;;7.67;6.10;;;;;;;;;;4911045;29;20456;-86
2023/06/17 14:24:03;;;;;;;5.33;5.03;;;;;;;;;;4903755;29;20746;-84
2023/06/17 14:26:32;;;;;;;5.00;4.70;;;;;;;;;;4907072;29;20603;-82
2023/06/17 14:29:00;;;;;;;4.97;4.67;;;;;;;;;;4905556;29;20580;-87
2023/06/17 14:31:28;;;;;;;6.50;6.00;;;;;;;;;;4919757;29;20479;-83
2023/06/17 14:33:55;;;;;;;5.70;5.30;;;;;;;;;;4921177;29;20954;-84
2023/06/17 14:36:23;;;;;;;7.90;5.23;;;;;;;;;;4901717;29;20466;-85
2023/06/17 14:38:50;;;;;;;5.90;5.50;;;;;;;;;;4903897;29;20470;-82
2023/06/17 14:41:17;;;;;;;5.97;5.50;;;;;;;;;;4903231;29;20577;-82
2023/06/17 14:43:45;;;;;;;5.87;5.47;;;;;;;;;;4906749;29;20488;-84
2023/06/17 14:46:16;;;;;;;6.23;5.83;;;;;;;;;;4905890;29;20422;-84
2023/06/17 14:48:43;;;;;;;8.13;6.70;;;;;;;;;;4909128;29;20443;-81